createdAt,value
2019-01-15T00:00:49.349Z,3.57
2019-01-15T00:03:15.780Z,2.87
2019-01-15T00:05:42.192Z,3.00
2019-01-15T00:08:08.644Z,3.47
2019-01-15T00:10:35.129Z,3.93
2019-01-15T00:13:01.547Z,3.20
2019-01-15T00:15:27.961Z,2.60
2019-01-15T00:17:54.433Z,2.67
2019-01-15T00:20:21.212Z,3.07
2019-01-15T00:22:48.067Z,2.43
2019-01-15T00:25:14.497Z,2.67
2019-01-15T00:27:41.003Z,3.67
2019-01-15T00:30:09.603Z,2.73
2019-01-15T00:32:36.027Z,2.33
2019-01-15T00:35:04.379Z,2.70
2019-01-15T00:37:30.840Z,2.50
2019-01-15T00:39:57.584Z,2.53
2019-01-15T00:42:24.000Z,2.53
2019-01-15T00:44:50.755Z,2.00
2019-01-15T00:47:17.496Z,2.57
2019-01-15T00:49:43.940Z,2.47
2019-01-15T00:52:10.380Z,2.30
2019-01-15T00:54:37.102Z,2.10
2019-01-15T00:57:03.552Z,2.47
2019-01-15T00:59:30.272Z,1.73
2019-01-15T01:01:57.431Z,1.83
2019-01-15T01:04:23.992Z,2.47
2019-01-15T01:06:50.408Z,2.70
2019-01-15T01:09:17.128Z,2.37
2019-01-15T01:11:43.864Z,1.80
2019-01-15T01:14:10.310Z,1.90
2019-01-15T01:16:36.720Z,2.10
2019-01-15T01:19:03.472Z,1.70
2019-01-15T01:21:29.889Z,2.47
2019-01-15T01:23:56.648Z,2.30
2019-01-15T01:26:23.335Z,1.60
2019-01-15T01:28:50.025Z,1.60
2019-01-15T01:31:16.757Z,2.13
2019-01-15T01:33:43.208Z,1.93
2019-01-15T01:36:09.652Z,2.60
2019-01-15T01:38:36.363Z,2.00
2019-01-15T01:41:02.775Z,2.43
2019-01-15T01:43:29.228Z,1.50
2019-01-15T01:45:55.640Z,1.60
2019-01-15T01:48:22.056Z,1.70
2019-01-15T01:50:48.499Z,1.77
2019-01-15T01:53:14.916Z,2.77
2019-01-15T01:55:41.377Z,1.57
2019-01-15T01:58:08.132Z,1.83
2019-01-15T02:00:34.864Z,1.70
2019-01-15T02:03:01.603Z,1.40
2019-01-15T02:05:28.346Z,2.33
2019-01-15T02:07:54.797Z,1.40
2019-01-15T02:10:21.236Z,2.40
2019-01-15T02:12:47.691Z,1.90
2019-01-15T02:15:16.324Z,1.77
2019-01-15T02:17:42.739Z,1.50
2019-01-15T02:20:10.383Z,1.70
2019-01-15T02:22:36.834Z,1.60
2019-01-15T02:25:04.609Z,1.60
2019-01-15T02:27:31.857Z,1.27
2019-01-15T02:29:58.300Z,1.70
2019-01-15T02:32:24.754Z,1.70
2019-01-15T02:34:51.468Z,1.23
2019-01-15T02:37:18.131Z,1.20
2019-01-15T02:39:44.544Z,1.47
2019-01-15T02:42:11.331Z,1.43
2019-01-15T02:44:37.741Z,1.40
2019-01-15T02:47:04.151Z,1.47
2019-01-15T02:49:30.603Z,1.03
2019-01-15T02:51:57.007Z,1.10
2019-01-15T02:54:23.451Z,1.57
2019-01-15T02:56:49.868Z,1.73
2019-01-15T02:59:16.285Z,1.40
2019-01-15T03:01:42.731Z,1.80
2019-01-15T03:04:09.147Z,2.10
2019-01-15T03:06:35.560Z,1.27
2019-01-15T03:09:05.004Z,1.40
2019-01-15T03:11:31.460Z,1.20
2019-01-15T03:13:57.933Z,2.03
2019-01-15T03:16:24.410Z,1.43
2019-01-15T03:18:52.268Z,1.60
2019-01-15T03:21:19.004Z,1.00
2019-01-15T03:23:45.425Z,1.20
2019-01-15T03:26:11.871Z,1.60
2019-01-15T03:28:38.407Z,1.50
2019-01-15T03:31:04.882Z,1.50
2019-01-15T03:33:31.376Z,0.93
2019-01-15T03:35:57.835Z,1.27
2019-01-15T03:38:24.559Z,1.60
2019-01-15T03:40:51.979Z,1.50
2019-01-15T03:43:18.477Z,1.23
2019-01-15T03:45:44.879Z,1.50
2019-01-15T03:48:11.612Z,1.70
2019-01-15T03:50:38.343Z,1.50
2019-01-15T03:53:05.095Z,1.87
2019-01-15T03:55:31.825Z,1.50
2019-01-15T03:57:58.559Z,1.40
2019-01-15T04:00:24.976Z,1.40
2019-01-15T04:02:51.733Z,1.30
2019-01-15T04:05:19.280Z,1.20
2019-01-15T04:07:46.795Z,1.73
2019-01-15T04:10:13.240Z,1.40
2019-01-15T04:12:39.658Z,1.40
2019-01-15T04:15:08.016Z,2.50
2019-01-15T04:17:34.733Z,1.27
2019-01-15T04:20:01.152Z,1.20
2019-01-15T04:22:27.597Z,1.07
2019-01-15T04:24:54.012Z,1.30
2019-01-15T04:27:20.468Z,1.50
2019-01-15T04:29:46.884Z,1.60
2019-01-15T04:32:13.632Z,1.43
2019-01-15T04:34:40.388Z,1.30
2019-01-15T04:37:07.112Z,1.27
2019-01-15T04:39:33.561Z,1.37
2019-01-15T04:42:00.009Z,2.20
2019-01-15T04:44:26.425Z,0.93
2019-01-15T04:46:53.144Z,1.20
2019-01-15T04:49:19.560Z,1.37
2019-01-15T04:51:45.976Z,1.60
2019-01-15T04:54:12.426Z,1.80
2019-01-15T04:56:39.488Z,1.70
2019-01-15T04:59:05.949Z,1.40
2019-01-15T05:01:32.363Z,1.13
2019-01-15T05:03:58.780Z,1.20
2019-01-15T05:06:25.538Z,1.13
2019-01-15T05:08:51.939Z,0.80
2019-01-15T05:11:18.392Z,1.77
2019-01-15T05:13:44.852Z,1.10
2019-01-15T05:16:11.270Z,1.00
2019-01-15T05:18:38.012Z,1.30
2019-01-15T05:21:04.460Z,2.20
2019-01-15T05:23:31.172Z,1.23
2019-01-15T05:25:57.921Z,1.23
2019-01-15T05:28:24.644Z,1.03
2019-01-15T05:30:51.385Z,1.30
2019-01-15T05:33:17.800Z,1.03
2019-01-15T05:35:44.221Z,1.20
2019-01-15T05:38:10.664Z,1.13
2019-01-15T05:40:37.112Z,1.23
2019-01-15T05:43:03.868Z,1.93
2019-01-15T05:45:32.432Z,1.40
2019-01-15T05:48:00.756Z,0.90
2019-01-15T05:50:44.209Z,1.20
2019-01-15T05:53:11.757Z,1.87
2019-01-15T05:55:38.169Z,1.10
2019-01-15T05:58:04.612Z,1.83
2019-01-15T06:00:32.127Z,1.00
2019-01-15T06:02:58.580Z,1.23
2019-01-15T06:05:24.996Z,0.90
2019-01-15T06:07:51.724Z,1.10
2019-01-15T06:10:18.195Z,1.30
2019-01-15T06:12:44.617Z,0.90
2019-01-15T06:15:12.456Z,1.17
2019-01-15T06:17:38.904Z,1.07
2019-01-15T06:20:07.467Z,1.70
2019-01-15T06:22:33.931Z,1.00
2019-01-15T06:25:00.372Z,0.80
2019-01-15T06:27:26.788Z,1.00
2019-01-15T06:29:53.235Z,0.97
2019-01-15T06:32:19.652Z,1.17
2019-01-15T06:34:46.074Z,1.23
2019-01-15T06:37:12.516Z,1.03
2019-01-15T06:39:38.936Z,0.90
2019-01-15T06:42:05.385Z,0.77
2019-01-15T06:44:31.832Z,1.37
2019-01-15T06:46:58.298Z,1.03
2019-01-15T06:49:24.736Z,1.13
2019-01-15T06:51:51.248Z,1.00
2019-01-15T06:54:17.663Z,0.83
2019-01-15T06:56:44.112Z,0.90
2019-01-15T06:59:10.560Z,1.30
2019-01-15T07:01:37.227Z,1.00
2019-01-15T07:04:03.681Z,1.17
2019-01-15T07:06:30.096Z,1.30
2019-01-15T07:08:56.544Z,1.20
2019-01-15T07:11:23.269Z,1.40
2019-01-15T07:13:49.728Z,1.40
2019-01-15T07:16:16.252Z,2.53
2019-01-15T07:18:42.689Z,1.23
2019-01-15T07:21:09.125Z,1.50
2019-01-15T07:23:35.844Z,2.17
2019-01-15T07:26:03.156Z,1.40
2019-01-15T07:28:29.599Z,1.80
2019-01-15T07:30:56.048Z,0.93
2019-01-15T07:33:22.892Z,1.30
2019-01-15T07:35:49.633Z,1.40
2019-01-15T07:38:16.372Z,1.50
2019-01-15T07:40:42.820Z,1.43
2019-01-15T07:43:09.270Z,1.50
2019-01-15T07:45:35.718Z,1.40
2019-01-15T07:48:02.128Z,1.13
2019-01-15T07:50:28.572Z,1.90
2019-01-15T07:52:55.272Z,1.60
2019-01-15T07:55:21.757Z,1.90
2019-01-15T07:57:48.175Z,1.80
2019-01-15T08:00:22.256Z,2.23
2019-01-15T08:02:49.808Z,1.97
2019-01-15T08:05:18.140Z,2.87
2019-01-15T08:07:44.625Z,3.13
2019-01-15T08:10:15.148Z,2.97
2019-01-15T08:12:41.620Z,3.20
2019-01-15T08:15:10.260Z,2.83
2019-01-15T08:17:36.713Z,2.90
2019-01-15T08:20:05.404Z,3.50
2019-01-15T08:22:31.820Z,3.20
2019-01-15T08:24:58.553Z,3.40
2019-01-15T08:27:24.977Z,3.57
2019-01-15T08:29:51.415Z,3.60
2019-01-15T08:32:18.158Z,3.63
2019-01-15T08:34:44.615Z,3.90
2019-01-15T08:37:11.329Z,3.67
2019-01-15T08:39:37.744Z,3.40
2019-01-15T08:42:04.500Z,3.20
2019-01-15T08:44:31.824Z,3.37
2019-01-15T08:46:58.310Z,3.43
2019-01-15T08:49:24.732Z,3.23
2019-01-15T08:51:52.149Z,3.80
2019-01-15T08:54:19.728Z,3.47
2019-01-15T08:56:46.131Z,2.97
2019-01-15T08:59:12.550Z,3.43
2019-01-15T09:01:38.995Z,3.23
2019-01-15T09:04:05.415Z,3.50
2019-01-15T09:06:31.960Z,3.40
2019-01-15T09:08:58.404Z,2.83
2019-01-15T09:11:24.820Z,3.63
2019-01-15T09:13:51.496Z,3.20
2019-01-15T09:16:18.340Z,3.40
2019-01-15T09:18:44.777Z,3.10
2019-01-15T09:21:11.292Z,3.20
2019-01-15T09:23:37.766Z,3.00
2019-01-15T09:26:04.209Z,3.27
2019-01-15T09:28:30.724Z,3.20
2019-01-15T09:30:57.548Z,4.40
2019-01-15T09:33:23.975Z,7.90
2019-01-15T09:35:50.424Z,4.70
2019-01-15T09:38:16.939Z,6.83
2019-01-15T09:40:43.396Z,3.53
2019-01-15T09:43:09.869Z,3.70
2019-01-15T09:45:36.284Z,4.00
2019-01-15T09:48:04.128Z,2.50
2019-01-15T09:50:30.544Z,2.90
2019-01-15T09:52:57.586Z,2.40
2019-01-15T09:55:24.328Z,3.90
2019-01-15T09:57:50.748Z,2.63
2019-01-15T10:00:17.995Z,2.60
2019-01-15T10:02:44.753Z,4.03
2019-01-15T10:05:11.204Z,2.70
2019-01-15T10:07:37.924Z,2.53
2019-01-15T10:10:06.246Z,2.70
2019-01-15T10:12:32.736Z,2.97
2019-01-15T10:14:59.468Z,2.00
2019-01-15T10:17:25.888Z,2.60
2019-01-15T10:19:52.352Z,2.57
2019-01-15T10:22:19.080Z,2.40
2019-01-15T10:24:46.092Z,2.57
2019-01-15T10:27:13.745Z,1.97
2019-01-15T10:29:40.156Z,2.53
2019-01-15T10:32:26.529Z,2.47
2019-01-15T10:34:54.148Z,2.70
2019-01-15T10:37:20.575Z,2.37
2019-01-15T10:39:47.012Z,2.10
2019-01-15T10:42:13.429Z,2.03
2019-01-15T10:44:39.904Z,2.17
2019-01-15T10:47:06.320Z,2.87
2019-01-15T10:49:32.736Z,2.00
2019-01-15T10:51:59.183Z,2.23
2019-01-15T10:54:25.964Z,1.87
2019-01-15T10:56:52.375Z,1.60
2019-01-15T10:59:19.112Z,2.27
2019-01-15T11:01:45.527Z,2.30
2019-01-15T11:04:11.944Z,2.20
2019-01-15T11:06:38.712Z,1.87
2019-01-15T11:09:07.435Z,2.03
2019-01-15T11:11:33.852Z,1.60
2019-01-15T11:14:00.315Z,2.13
2019-01-15T11:16:26.730Z,1.80
2019-01-15T11:18:53.437Z,1.60
2019-01-15T11:21:19.875Z,1.80
2019-01-15T11:23:46.323Z,1.53
2019-01-15T11:26:13.218Z,1.90
2019-01-15T11:28:39.640Z,1.90
2019-01-15T11:31:06.083Z,1.60
2019-01-15T11:33:32.505Z,2.10
2019-01-15T11:35:59.168Z,1.67
2019-01-15T11:38:25.612Z,1.77
2019-01-15T11:40:52.348Z,1.83
2019-01-15T11:43:19.088Z,1.80
2019-01-15T11:45:45.580Z,1.53
2019-01-15T11:48:12.256Z,1.53
2019-01-15T11:50:38.996Z,2.90
2019-01-15T11:53:05.411Z,1.47
2019-01-15T11:55:31.877Z,1.53
2019-01-15T11:57:58.297Z,1.63
2019-01-15T12:00:40.244Z,1.70
2019-01-15T12:03:08.976Z,1.40
2019-01-15T12:05:37.300Z,1.73
2019-01-15T12:08:08.528Z,3.00
2019-01-15T12:10:53.480Z,1.70
2019-01-15T12:13:40.272Z,1.90
2019-01-15T12:16:17.252Z,1.97
2019-01-15T12:18:48.503Z,6.93
2019-01-15T12:21:16.820Z,7.93
2019-01-15T12:23:45.146Z,4.23
2019-01-15T12:26:16.760Z,13.20
2019-01-15T12:28:45.076Z,3.30
2019-01-15T12:31:13.440Z,11.20
2019-01-15T12:33:44.407Z,3.80
2019-01-15T12:36:12.728Z,3.20
2019-01-15T12:38:47.200Z,4.70
2019-01-15T12:41:18.396Z,4.10
2019-01-15T12:43:58.576Z,2.67
2019-01-15T12:46:32.673Z,6.23
2019-01-15T12:49:17.552Z,2.13
2019-01-15T12:51:49.120Z,5.07
2019-01-15T12:54:34.012Z,3.13
2019-01-15T12:57:19.047Z,3.90
2019-01-15T12:59:59.744Z,5.27
2019-01-15T13:02:34.036Z,2.97
2019-01-15T13:05:02.356Z,3.10
2019-01-15T13:07:33.560Z,4.47
2019-01-15T13:10:07.876Z,1.60
2019-01-15T13:12:54.160Z,1.40
2019-01-15T13:15:34.485Z,2.70
2019-01-15T13:18:04.484Z,2.90
2019-01-15T13:20:32.840Z,1.97
2019-01-15T13:23:17.909Z,2.43
2019-01-15T13:25:46.259Z,1.60
2019-01-15T13:28:31.441Z,1.87
2019-01-15T13:31:05.860Z,1.80
2019-01-15T13:33:46.236Z,1.30
2019-01-15T13:36:20.692Z,2.90
2019-01-15T13:38:49.014Z,1.80
2019-01-15T13:41:23.555Z,1.70
2019-01-15T13:43:51.888Z,2.83
2019-01-15T13:46:23.089Z,1.77
2019-01-15T13:49:09.572Z,2.57
2019-01-15T13:51:46.953Z,1.50
2019-01-15T13:54:27.066Z,2.97
2019-01-15T13:56:55.384Z,1.50
2019-01-15T13:59:32.792Z,1.37
2019-01-15T14:02:19.360Z,1.47
2019-01-15T14:05:04.240Z,2.43
2019-01-15T14:07:35.488Z,2.57
2019-01-15T14:10:23.991Z,4.20
2019-01-15T14:13:08.920Z,1.90
2019-01-15T14:15:54.177Z,2.10
2019-01-15T14:18:22.492Z,1.57
2019-01-15T14:20:53.704Z,1.53
2019-01-15T14:23:29.307Z,1.63
2019-01-15T14:25:58.332Z,1.33
2019-01-15T14:28:29.288Z,1.20
2019-01-15T14:31:14.657Z,1.70
2019-01-15T14:33:42.972Z,3.23
2019-01-15T14:36:11.291Z,1.93
2019-01-15T14:38:42.853Z,1.50
2019-01-15T14:41:11.173Z,1.50
2019-01-15T14:43:45.269Z,1.20
2019-01-15T14:46:19.864Z,1.37
2019-01-15T14:49:00.533Z,1.20
2019-01-15T14:51:28.880Z,1.23
2019-01-15T14:54:00.152Z,1.30
2019-01-15T14:56:28.473Z,1.30
2019-01-15T14:59:13.497Z,1.40
2019-01-15T15:01:44.823Z,1.47
2019-01-15T15:04:19.472Z,1.40
2019-01-15T15:06:56.856Z,1.50
2019-01-15T15:09:43.569Z,1.43
2019-01-15T15:12:14.521Z,1.63
2019-01-15T15:14:42.837Z,1.50
2019-01-15T15:17:11.183Z,1.03
2019-01-15T15:19:45.779Z,3.40
2019-01-15T15:22:17.140Z,1.47
2019-01-15T15:24:51.344Z,1.50
2019-01-15T15:27:19.691Z,1.90
2019-01-15T15:29:50.839Z,1.20
2019-01-15T15:32:28.017Z,1.53
2019-01-15T15:35:11.683Z,1.37
2019-01-15T15:37:42.984Z,1.30
2019-01-15T15:40:20.529Z,1.90
2019-01-15T15:42:55.144Z,1.70
2019-01-15T15:45:26.199Z,1.73
2019-01-15T15:47:54.520Z,1.60
2019-01-15T15:50:26.116Z,1.70
2019-01-15T15:52:54.476Z,1.80
2019-01-15T15:55:39.704Z,1.50
2019-01-15T15:58:13.913Z,3.13
2019-01-15T16:01:00.040Z,1.20
2019-01-15T16:03:45.353Z,1.40
2019-01-15T16:06:19.488Z,1.83
2019-01-15T16:08:53.563Z,1.47
2019-01-15T16:11:34.044Z,1.57
2019-01-15T16:14:19.104Z,1.13
2019-01-15T16:16:47.981Z,1.57
2019-01-15T16:19:20.252Z,1.37
2019-01-15T16:21:48.604Z,1.37
2019-01-15T16:24:22.660Z,2.73
2019-01-15T16:27:02.988Z,1.77
2019-01-15T16:29:31.592Z,1.67
2019-01-15T16:32:15.096Z,1.50
2019-01-15T16:34:52.392Z,1.83
2019-01-15T16:37:21.012Z,1.37
2019-01-15T16:39:52.361Z,1.97
2019-01-15T16:42:23.891Z,1.70
2019-01-15T16:45:08.864Z,1.37
2019-01-15T16:47:42.999Z,1.70
2019-01-15T16:50:26.495Z,1.80
2019-01-15T16:53:03.760Z,2.80
2019-01-15T16:55:32.113Z,1.47
2019-01-15T16:58:00.536Z,1.80
2019-01-15T17:00:45.820Z,6.00
2019-01-15T17:03:29.032Z,8.63
2019-01-15T17:06:13.736Z,15.60
2019-01-15T17:08:48.328Z,54.20
2019-01-15T17:11:19.885Z,145.60
2019-01-15T17:14:00.546Z,164.20
2019-01-15T17:16:33.616Z,168.33
2019-01-15T17:19:02.291Z,217.00
2019-01-15T17:21:47.392Z,227.33
2019-01-15T17:24:15.761Z,253.27
2019-01-15T17:26:58.948Z,231.43
2019-01-15T17:29:27.292Z,246.57
2019-01-15T17:32:07.452Z,243.97
2019-01-15T17:34:36.108Z,238.00
2019-01-15T17:37:22.544Z,238.07
2019-01-15T17:40:07.500Z,237.40
2019-01-15T17:42:45.177Z,242.97
2019-01-15T17:45:19.491Z,230.73
2019-01-15T17:47:50.835Z,232.23
2019-01-15T17:50:28.737Z,228.40
2019-01-15T17:53:13.695Z,212.87
2019-01-15T17:55:51.195Z,215.00
2019-01-15T17:58:19.551Z,213.30
2019-01-15T18:00:47.904Z,200.77
2019-01-15T18:03:18.844Z,201.23
2019-01-15T18:05:50.192Z,189.83
2019-01-15T18:08:24.475Z,181.20
2019-01-15T18:11:04.609Z,173.00
2019-01-15T18:13:49.777Z,178.17
2019-01-15T18:16:21.022Z,165.60
2019-01-15T18:18:52.296Z,167.00
2019-01-15T18:21:27.130Z,158.90
2019-01-15T18:23:55.583Z,156.10
2019-01-15T18:26:40.248Z,148.47
2019-01-15T18:29:20.660Z,148.07
2019-01-15T18:32:05.660Z,151.93
2019-01-15T18:34:36.883Z,149.90
2019-01-15T18:37:08.086Z,141.90
2019-01-15T18:39:39.708Z,130.33
2019-01-15T18:42:08.020Z,137.73
2019-01-15T18:44:39.331Z,132.57
2019-01-15T18:47:24.496Z,132.40
2019-01-15T18:50:10.896Z,127.63
2019-01-15T18:52:55.793Z,128.83
2019-01-15T18:55:24.381Z,126.03
2019-01-15T18:57:56.104Z,124.73
2019-01-15T19:00:27.092Z,117.97
2019-01-15T19:02:55.724Z,109.43
2019-01-15T19:05:24.413Z,110.30
2019-01-15T19:07:52.800Z,104.23
2019-01-15T19:10:39.059Z,104.20
2019-01-15T19:13:16.430Z,99.20
2019-01-15T19:15:53.545Z,97.57
2019-01-15T19:18:24.516Z,91.23
2019-01-15T19:20:55.508Z,87.13
2019-01-15T19:23:23.831Z,87.37
2019-01-15T19:26:01.196Z,88.13
2019-01-15T19:28:38.307Z,84.80
2019-01-15T19:31:21.711Z,79.33
2019-01-15T19:33:50.291Z,78.20
2019-01-15T19:36:18.657Z,76.37
2019-01-15T19:38:46.980Z,78.10
2019-01-15T19:41:15.292Z,70.60
2019-01-15T19:43:43.657Z,73.67
2019-01-15T19:46:14.857Z,68.63
2019-01-15T19:48:59.772Z,68.40
2019-01-15T19:51:28.092Z,67.40
2019-01-15T19:54:12.843Z,68.40
2019-01-15T19:56:44.503Z,66.73
2019-01-15T19:59:13.088Z,66.00
2019-01-15T20:01:53.464Z,63.60
2019-01-15T20:04:24.694Z,62.93
2019-01-15T20:06:59.109Z,59.20
2019-01-15T20:09:27.433Z,63.57
2019-01-15T20:12:12.368Z,57.80
2019-01-15T20:14:55.790Z,56.00
2019-01-15T20:17:40.614Z,56.00
2019-01-15T20:20:27.236Z,56.27
2019-01-15T20:22:55.625Z,57.47
2019-01-15T20:25:40.493Z,54.47
2019-01-15T20:28:20.677Z,53.80
2019-01-15T20:31:01.146Z,53.50
2019-01-15T20:33:46.489Z,52.47
2019-01-15T20:36:20.924Z,50.10
2019-01-15T20:38:52.268Z,49.00
2019-01-15T20:41:29.875Z,49.97
2019-01-15T20:43:58.329Z,48.50
2019-01-15T20:46:26.652Z,48.27
2019-01-15T20:48:54.983Z,43.50
2019-01-15T20:51:23.329Z,43.50
2019-01-15T20:53:54.516Z,44.60
2019-01-15T20:56:34.856Z,43.43
2019-01-15T20:59:03.181Z,41.47
2019-01-15T21:01:37.515Z,42.70
2019-01-15T21:04:17.620Z,42.77
2019-01-15T21:06:45.972Z,37.27
2019-01-15T21:09:14.324Z,39.23
2019-01-15T21:11:54.824Z,35.80
2019-01-15T21:14:25.796Z,35.93
2019-01-15T21:17:09.246Z,33.03
2019-01-15T21:19:37.644Z,32.80
2019-01-15T21:22:22.481Z,34.97
2019-01-15T21:24:53.700Z,33.13
2019-01-15T21:27:33.640Z,31.60
2019-01-15T21:30:02.005Z,30.40
2019-01-15T21:32:42.668Z,31.43
2019-01-15T21:35:27.312Z,29.77
2019-01-15T21:37:55.640Z,29.60
2019-01-15T21:40:26.848Z,28.03
2019-01-15T21:43:04.361Z,29.57
2019-01-15T21:45:32.924Z,27.27
2019-01-15T21:48:03.910Z,27.33
2019-01-15T21:50:32.956Z,27.53
2019-01-15T21:53:17.860Z,25.63
2019-01-15T21:56:04.473Z,25.00
2019-01-15T21:58:32.794Z,26.17
2019-01-15T22:01:07.941Z,24.70
2019-01-15T22:03:45.213Z,24.30
2019-01-15T22:06:31.324Z,23.90
2019-01-15T22:09:05.721Z,23.50
2019-01-15T22:11:44.092Z,20.60
2019-01-15T22:14:15.194Z,19.53
2019-01-15T22:16:49.969Z,20.73
2019-01-15T22:19:35.214Z,22.23
2019-01-15T22:22:11.152Z,23.80
2019-01-15T22:24:39.728Z,22.20
2019-01-15T22:27:11.486Z,22.60
2019-01-15T22:29:42.630Z,23.40
2019-01-15T22:32:20.012Z,19.77
2019-01-15T22:35:07.344Z,21.30
2019-01-15T22:37:44.525Z,21.13
2019-01-15T22:40:31.381Z,19.73
2019-01-15T22:43:02.576Z,18.90
2019-01-15T22:45:49.678Z,19.27
2019-01-15T22:48:34.764Z,21.07
2019-01-15T22:51:04.000Z,19.00
2019-01-15T22:53:47.358Z,18.03
2019-01-15T22:56:30.037Z,18.67
2019-01-15T22:59:05.062Z,17.80
2019-01-15T23:01:36.596Z,17.63
2019-01-15T23:04:05.054Z,17.73
2019-01-15T23:06:39.444Z,30.07
2019-01-15T23:09:15.445Z,23.67
2019-01-15T23:11:55.856Z,35.30
2019-01-15T23:14:24.200Z,36.37
2019-01-15T23:17:01.436Z,37.00
2019-01-15T23:19:38.531Z,29.33
2019-01-15T23:22:14.341Z,28.07
2019-01-15T23:25:01.112Z,28.73
2019-01-15T23:27:32.383Z,26.80
2019-01-15T23:30:03.407Z,24.70
2019-01-15T23:32:31.724Z,26.47
2019-01-15T23:35:08.777Z,23.73
2019-01-15T23:37:37.437Z,23.63
2019-01-15T23:40:24.080Z,22.20
2019-01-15T23:43:09.317Z,22.10
2019-01-15T23:45:37.710Z,21.80
2019-01-15T23:48:12.216Z,21.97
2019-01-15T23:50:43.217Z,20.87
2019-01-15T23:53:26.630Z,20.17
2019-01-15T23:56:13.056Z,20.43
2019-01-15T23:58:50.142Z,18.80
